sensor_id;sensor_type;location;lat;lon;timestamp;pressure;altitude;pressure_sealevel;temperature;humidity
52983;BME280;48698;45.736;13.926;2022-07-23T00:03:24;97654.25;;;21.89;100.00
52983;BME280;48698;45.736;13.926;2022-07-23T00:08:27;97657.91;;;21.98;100.00
52983;BME280;48698;45.736;13.926;2022-07-23T00:13:31;97634.47;;;21.33;100.00
52983;BME280;48698;45.736;13.926;2022-07-23T00:18:34;97648.28;;;21.76;100.00
52983;BME280;48698;45.736;13.926;2022-07-23T00:23:38;97605.91;;;21.01;100.00
52983;BME280;48698;45.736;13.926;2022-07-23T00:28:41;97412.53;;;20.25;100.00
52983;BME280;48698;45.736;13.926;2022-07-23T00:33:44;97531.81;;;20.67;100.00
52983;BME280;48698;45.736;13.926;2022-07-23T00:38:47;97626.19;;;21.53;100.00
52983;BME280;48698;45.736;13.926;2022-07-23T00:43:51;97569.28;;;20.70;100.00
52983;BME280;48698;45.736;13.926;2022-07-23T00:48:55;97552.41;;;20.68;100.00
52983;BME280;48698;45.736;13.926;2022-07-23T00:53:59;97609.75;;;20.89;100.00
52983;BME280;48698;45.736;13.926;2022-07-23T00:59:02;97497.25;;;19.84;100.00
52983;BME280;48698;45.736;13.926;2022-07-23T01:04:06;97627.63;;;21.38;100.00
52983;BME280;48698;45.736;13.926;2022-07-23T01:09:10;97609.75;;;21.28;100.00
52983;BME280;48698;45.736;13.926;2022-07-23T01:14:14;97537.63;;;20.53;100.00
52983;BME280;48698;45.736;13.926;2022-07-23T01:19:19;97593.59;;;20.51;100.00
52983;BME280;48698;45.736;13.926;2022-07-23T01:24:21;97534.66;;;20.56;100.00
52983;BME280;48698;45.736;13.926;2022-07-23T01:29:27;97495.00;;;20.08;100.00
52983;BME280;48698;45.736;13.926;2022-07-23T01:34:30;97546.69;;;20.61;100.00
52983;BME280;48698;45.736;13.926;2022-07-23T01:39:33;97584.88;;;20.95;100.00
52983;BME280;48698;45.736;13.926;2022-07-23T01:44:36;97553.75;;;20.15;100.00
52983;BME280;48698;45.736;13.926;2022-07-23T01:49:39;97594.00;;;20.75;100.00
52983;BME280;48698;45.736;13.926;2022-07-23T01:54:42;97604.66;;;20.57;100.00
52983;BME280;48698;45.736;13.926;2022-07-23T01:59:45;97500.53;;;19.88;100.00
52983;BME280;48698;45.736;13.926;2022-07-23T02:04:48;97540.75;;;20.29;100.00
52983;BME280;48698;45.736;13.926;2022-07-23T02:09:51;97552.91;;;20.04;100.00
52983;BME280;48698;45.736;13.926;2022-07-23T02:14:53;97617.63;;;20.24;100.00
52983;BME280;48698;45.736;13.926;2022-07-23T02:19:56;97538.09;;;19.99;100.00
52983;BME280;48698;45.736;13.926;2022-07-23T02:25:00;97609.56;;;19.84;100.00
52983;BME280;48698;45.736;13.926;2022-07-23T02:30:03;97538.66;;;19.93;100.00
52983;BME280;48698;45.736;13.926;2022-07-23T02:35:07;97521.19;;;19.68;100.00
52983;BME280;48698;45.736;13.926;2022-07-23T02:40:10;97571.44;;;19.88;100.00
52983;BME280;48698;45.736;13.926;2022-07-23T02:45:14;97548.22;;;20.06;100.00
52983;BME280;48698;45.736;13.926;2022-07-23T02:50:17;97575.50;;;20.32;100.00
52983;BME280;48698;45.736;13.926;2022-07-23T02:55:20;97560.25;;;20.02;100.00
52983;BME280;48698;45.736;13.926;2022-07-23T03:00:23;97523.84;;;19.58;100.00
52983;BME280;48698;45.736;13.926;2022-07-23T03:05:26;97555.84;;;19.92;100.00
52983;BME280;48698;45.736;13.926;2022-07-23T03:10:29;97511.19;;;19.49;100.00
52983;BME280;48698;45.736;13.926;2022-07-23T03:15:34;97614.06;;;20.13;100.00
52983;BME280;48698;45.736;13.926;2022-07-23T03:20:37;97464.75;;;19.36;100.00
52983;BME280;48698;45.736;13.926;2022-07-23T03:25:39;97614.69;;;19.56;100.00
52983;BME280;48698;45.736;13.926;2022-07-23T03:30:44;97618.25;;;18.74;100.00
52983;BME280;48698;45.736;13.926;2022-07-23T03:35:49;97587.53;;;19.18;100.00
52983;BME280;48698;45.736;13.926;2022-07-23T03:40:52;97575.81;;;18.98;100.00
52983;BME280;48698;45.736;13.926;2022-07-23T03:45:55;97612.09;;;19.45;100.00
52983;BME280;48698;45.736;13.926;2022-07-23T03:50:58;97512.50;;;19.04;100.00
52983;BME280;48698;45.736;13.926;2022-07-23T03:56:01;97524.78;;;19.18;100.00
52983;BME280;48698;45.736;13.926;2022-07-23T04:01:04;97621.53;;;20.00;100.00
52983;BME280;48698;45.736;13.926;2022-07-23T04:06:07;97559.47;;;19.72;100.00
52983;BME280;48698;45.736;13.926;2022-07-23T04:11:10;97565.91;;;19.90;100.00
52983;BME280;48698;45.736;13.926;2022-07-23T04:16:13;97605.38;;;20.00;100.00
52983;BME280;48698;45.736;13.926;2022-07-23T04:21:16;97514.81;;;19.39;100.00
52983;BME280;48698;45.736;13.926;2022-07-23T04:26:19;97641.28;;;20.41;100.00
52983;BME280;48698;45.736;13.926;2022-07-23T04:31:22;97586.31;;;19.83;100.00
52983;BME280;48698;45.736;13.926;2022-07-23T04:36:25;97631.34;;;20.01;100.00
52983;BME280;48698;45.736;13.926;2022-07-23T04:41:28;97594.28;;;19.94;100.00
52983;BME280;48698;45.736;13.926;2022-07-23T04:46:31;97617.91;;;20.21;100.00
52983;BME280;48698;45.736;13.926;2022-07-23T04:51:35;97603.81;;;20.67;100.00
52983;BME280;48698;45.736;13.926;2022-07-23T04:56:37;97556.88;;;20.20;100.00
52983;BME280;48698;45.736;13.926;2022-07-23T05:01:40;97428.56;;;19.79;100.00
52983;BME280;48698;45.736;13.926;2022-07-23T05:06:44;97549.13;;;20.74;100.00
52983;BME280;48698;45.736;13.926;2022-07-23T05:11:47;97557.75;;;21.16;100.00
52983;BME280;48698;45.736;13.926;2022-07-23T05:16:50;97565.31;;;21.49;100.00
52983;BME280;48698;45.736;13.926;2022-07-23T05:21:52;97557.56;;;21.74;100.00
52983;BME280;48698;45.736;13.926;2022-07-23T05:26:55;97461.22;;;21.18;100.00
52983;BME280;48698;45.736;13.926;2022-07-23T05:32:00;97523.34;;;21.82;100.00
52983;BME280;48698;45.736;13.926;2022-07-23T05:37:03;97556.59;;;22.20;100.00
52983;BME280;48698;45.736;13.926;2022-07-23T05:42:07;97543.47;;;22.42;100.00
52983;BME280;48698;45.736;13.926;2022-07-23T05:47:10;97596.22;;;23.09;100.00
52983;BME280;48698;45.736;13.926;2022-07-23T05:52:13;97540.66;;;23.31;100.00
52983;BME280;48698;45.736;13.926;2022-07-23T05:57:16;97447.44;;;23.41;100.00
52983;BME280;48698;45.736;13.926;2022-07-23T06:02:25;97551.72;;;24.63;100.00
52983;BME280;48698;45.736;13.926;2022-07-23T06:07:28;97505.09;;;25.08;100.00
52983;BME280;48698;45.736;13.926;2022-07-23T06:12:34;97376.94;;;24.64;100.00
52983;BME280;48698;45.736;13.926;2022-07-23T06:17:40;97530.91;;;25.83;100.00
52983;BME280;48698;45.736;13.926;2022-07-23T06:22:44;97602.56;;;26.53;100.00
52983;BME280;48698;45.736;13.926;2022-07-23T06:27:47;97621.81;;;26.83;100.00
52983;BME280;48698;45.736;13.926;2022-07-23T06:32:50;97556.41;;;26.83;100.00
52983;BME280;48698;45.736;13.926;2022-07-23T06:37:53;97582.53;;;27.37;100.00
52983;BME280;48698;45.736;13.926;2022-07-23T06:42:56;97639.31;;;28.08;100.00
52983;BME280;48698;45.736;13.926;2022-07-23T06:47:59;97555.63;;;28.15;100.00
52983;BME280;48698;45.736;13.926;2022-07-23T06:53:02;97490.63;;;28.26;100.00
52983;BME280;48698;45.736;13.926;2022-07-23T06:58:05;97477.72;;;28.70;100.00
52983;BME280;48698;45.736;13.926;2022-07-23T18:36:25;97497.03;;;29.73;100.00
52983;BME280;48698;45.736;13.926;2022-07-23T18:51:01;97490.91;;;29.15;100.00
52983;BME280;48698;45.736;13.926;2022-07-23T18:56:04;97494.53;;;28.16;100.00
52983;BME280;48698;45.736;13.926;2022-07-23T19:01:08;97514.22;;;27.83;100.00
52983;BME280;48698;45.736;13.926;2022-07-23T19:06:14;97375.34;;;26.70;100.00
52983;BME280;48698;45.736;13.926;2022-07-23T19:11:17;97558.47;;;27.03;100.00
52983;BME280;48698;45.736;13.926;2022-07-23T19:16:20;97478.84;;;26.93;100.00
52983;BME280;48698;45.736;13.926;2022-07-23T19:21:23;97582.53;;;27.00;100.00
52983;BME280;48698;45.736;13.926;2022-07-23T19:26:29;97576.50;;;26.82;100.00
52983;BME280;48698;45.736;13.926;2022-07-23T19:31:32;97580.59;;;26.24;100.00
52983;BME280;48698;45.736;13.926;2022-07-23T19:36:35;97548.50;;;25.64;100.00
52983;BME280;48698;45.736;13.926;2022-07-23T19:41:38;97585.59;;;26.04;100.00
52983;BME280;48698;45.736;13.926;2022-07-23T19:46:42;97416.00;;;24.31;100.00
52983;BME280;48698;45.736;13.926;2022-07-23T19:51:45;97587.25;;;25.26;100.00
52983;BME280;48698;45.736;13.926;2022-07-23T19:56:48;97598.91;;;25.91;100.00
52983;BME280;48698;45.736;13.926;2022-07-23T20:01:51;97493.38;;;25.07;100.00
52983;BME280;48698;45.736;13.926;2022-07-23T20:06:55;97557.53;;;24.68;100.00
52983;BME280;48698;45.736;13.926;2022-07-23T20:11:58;97587.22;;;24.61;100.00
52983;BME280;48698;45.736;13.926;2022-07-23T20:17:02;97596.72;;;24.74;100.00
52983;BME280;48698;45.736;13.926;2022-07-23T20:22:09;97555.88;;;25.15;100.00
52983;BME280;48698;45.736;13.926;2022-07-23T20:27:12;97597.44;;;25.16;100.00
52983;BME280;48698;45.736;13.926;2022-07-23T20:32:16;97601.34;;;24.89;100.00
52983;BME280;48698;45.736;13.926;2022-07-23T20:37:21;97609.31;;;24.83;100.00
52983;BME280;48698;45.736;13.926;2022-07-23T20:42:24;97603.84;;;24.58;100.00
52983;BME280;48698;45.736;13.926;2022-07-23T20:47:33;97614.44;;;24.94;100.00
52983;BME280;48698;45.736;13.926;2022-07-23T20:52:45;97416.63;;;23.50;100.00
52983;BME280;48698;45.736;13.926;2022-07-23T20:57:48;97602.63;;;24.53;100.00
52983;BME280;48698;45.736;13.926;2022-07-23T21:02:53;97633.00;;;24.56;100.00
52983;BME280;48698;45.736;13.926;2022-07-23T21:07:57;97399.91;;;23.21;100.00
52983;BME280;48698;45.736;13.926;2022-07-23T21:12:59;97665.28;;;23.66;100.00
52983;BME280;48698;45.736;13.926;2022-07-23T21:18:04;97619.09;;;24.09;100.00
52983;BME280;48698;45.736;13.926;2022-07-23T21:23:07;97563.06;;;22.89;100.00
52983;BME280;48698;45.736;13.926;2022-07-23T21:28:10;97594.16;;;22.85;100.00
52983;BME280;48698;45.736;13.926;2022-07-23T21:33:13;97461.41;;;22.16;100.00
52983;BME280;48698;45.736;13.926;2022-07-23T21:38:16;97494.41;;;22.20;100.00
52983;BME280;48698;45.736;13.926;2022-07-23T21:43:20;97532.31;;;22.28;100.00
52983;BME280;48698;45.736;13.926;2022-07-23T21:48:24;97605.22;;;23.09;100.00
52983;BME280;48698;45.736;13.926;2022-07-23T21:53:27;97641.31;;;23.36;100.00
52983;BME280;48698;45.736;13.926;2022-07-23T21:58:30;97473.53;;;22.30;100.00
52983;BME280;48698;45.736;13.926;2022-07-23T22:03:33;97662.69;;;23.39;100.00
52983;BME280;48698;45.736;13.926;2022-07-23T22:08:36;97465.16;;;21.60;100.00
52983;BME280;48698;45.736;13.926;2022-07-23T22:13:39;97670.34;;;22.90;100.00
52983;BME280;48698;45.736;13.926;2022-07-23T22:18:43;97574.16;;;22.51;100.00
52983;BME280;48698;45.736;13.926;2022-07-23T22:23:46;97463.44;;;21.59;100.00
52983;BME280;48698;45.736;13.926;2022-07-23T22:28:50;97649.19;;;23.03;100.00
52983;BME280;48698;45.736;13.926;2022-07-23T22:33:53;97627.66;;;22.84;100.00
52983;BME280;48698;45.736;13.926;2022-07-23T22:38:56;97671.75;;;23.12;100.00
52983;BME280;48698;45.736;13.926;2022-07-23T22:43:59;97678.94;;;23.39;100.00
52983;BME280;48698;45.736;13.926;2022-07-23T22:49:02;97520.91;;;23.12;100.00
52983;BME280;48698;45.736;13.926;2022-07-23T22:54:07;97627.72;;;23.53;100.00
52983;BME280;48698;45.736;13.926;2022-07-23T22:59:09;97691.91;;;23.71;100.00
52983;BME280;48698;45.736;13.926;2022-07-23T23:04:30;97651.56;;;23.42;100.00
52983;BME280;48698;45.736;13.926;2022-07-23T23:09:34;97476.50;;;22.44;100.00
52983;BME280;48698;45.736;13.926;2022-07-23T23:14:37;97637.31;;;23.65;100.00
52983;BME280;48698;45.736;13.926;2022-07-23T23:19:40;97596.06;;;23.10;100.00
52983;BME280;48698;45.736;13.926;2022-07-23T23:24:43;97617.22;;;22.27;100.00
52983;BME280;48698;45.736;13.926;2022-07-23T23:29:46;97659.53;;;22.45;100.00
52983;BME280;48698;45.736;13.926;2022-07-23T23:34:50;97754.38;;;23.43;100.00
52983;BME280;48698;45.736;13.926;2022-07-23T23:39:53;97749.09;;;23.06;100.00
52983;BME280;48698;45.736;13.926;2022-07-23T23:45:04;97729.09;;;23.78;100.00
52983;BME280;48698;45.736;13.926;2022-07-23T23:50:11;97710.81;;;24.06;100.00
52983;BME280;48698;45.736;13.926;2022-07-23T23:55:14;97667.88;;;24.01;100.00
